sensor_id;sensor_type;location;lat;lon;timestamp;temperature;humidity
33931;DHT22;20215;53.130;6.408;2022-11-25T00:01:13;12.10;91.90
33931;DHT22;20215;53.130;6.408;2022-11-25T00:03:40;12.10;91.90
33931;DHT22;20215;53.130;6.408;2022-11-25T00:06:11;12.10;91.90
33931;DHT22;20215;53.130;6.408;2022-11-25T00:08:37;12.10;91.90
33931;DHT22;20215;53.130;6.408;2022-11-25T00:11:03;12.20;91.90
33931;DHT22;20215;53.130;6.408;2022-11-25T00:13:29;12.20;92.00
33931;DHT22;20215;53.130;6.408;2022-11-25T00:15:55;12.10;91.90
33931;DHT22;20215;53.130;6.408;2022-11-25T00:18:24;12.10;91.90
33931;DHT22;20215;53.130;6.408;2022-11-25T00:20:50;12.10;91.90
33931;DHT22;20215;53.130;6.408;2022-11-25T00:23:15;12.10;91.90
33931;DHT22;20215;53.130;6.408;2022-11-25T00:25:41;12.10;91.90
33931;DHT22;20215;53.130;6.408;2022-11-25T00:28:06;12.10;91.90
33931;DHT22;20215;53.130;6.408;2022-11-25T00:30:32;12.10;91.90
33931;DHT22;20215;53.130;6.408;2022-11-25T00:32:58;12.20;91.90
33931;DHT22;20215;53.130;6.408;2022-11-25T00:35:23;12.10;91.90
33931;DHT22;20215;53.130;6.408;2022-11-25T00:37:49;12.20;91.90
33931;DHT22;20215;53.130;6.408;2022-11-25T00:40:14;12.10;91.90
33931;DHT22;20215;53.130;6.408;2022-11-25T00:42:40;12.10;91.90
33931;DHT22;20215;53.130;6.408;2022-11-25T00:45:24;12.20;91.90
33931;DHT22;20215;53.130;6.408;2022-11-25T00:47:52;12.10;91.90
33931;DHT22;20215;53.130;6.408;2022-11-25T00:50:18;12.10;91.90
33931;DHT22;20215;53.130;6.408;2022-11-25T00:52:43;12.10;91.90
33931;DHT22;20215;53.130;6.408;2022-11-25T00:55:09;12.10;91.90
33931;DHT22;20215;53.130;6.408;2022-11-25T00:57:34;12.20;91.90
33931;DHT22;20215;53.130;6.408;2022-11-25T01:00:00;12.20;91.90
33931;DHT22;20215;53.130;6.408;2022-11-25T01:02:26;12.10;91.90
33931;DHT22;20215;53.130;6.408;2022-11-25T01:04:52;12.20;91.90
33931;DHT22;20215;53.130;6.408;2022-11-25T01:07:17;12.20;91.90
33931;DHT22;20215;53.130;6.408;2022-11-25T01:09:43;12.20;91.90
33931;DHT22;20215;53.130;6.408;2022-11-25T01:12:09;12.20;91.90
33931;DHT22;20215;53.130;6.408;2022-11-25T01:14:34;12.10;91.80
33931;DHT22;20215;53.130;6.408;2022-11-25T01:17:00;12.20;91.90
33931;DHT22;20215;53.130;6.408;2022-11-25T01:19:26;12.20;91.90
33931;DHT22;20215;53.130;6.408;2022-11-25T01:21:51;12.10;91.90
33931;DHT22;20215;53.130;6.408;2022-11-25T01:24:17;12.10;91.90
33931;DHT22;20215;53.130;6.408;2022-11-25T01:26:44;12.10;91.90
33931;DHT22;20215;53.130;6.408;2022-11-25T01:29:15;12.20;91.90
33931;DHT22;20215;53.130;6.408;2022-11-25T01:31:41;12.20;91.90
33931;DHT22;20215;53.130;6.408;2022-11-25T01:34:17;12.10;91.80
33931;DHT22;20215;53.130;6.408;2022-11-25T01:36:43;12.10;91.90
33931;DHT22;20215;53.130;6.408;2022-11-25T01:39:16;12.10;91.90
33931;DHT22;20215;53.130;6.408;2022-11-25T01:41:42;12.10;91.90
33931;DHT22;20215;53.130;6.408;2022-11-25T01:49:59;12.10;91.80
33931;DHT22;20215;53.130;6.408;2022-11-25T01:52:30;12.10;92.00
33931;DHT22;20215;53.130;6.408;2022-11-25T01:55:18;12.10;92.00
33931;DHT22;20215;53.130;6.408;2022-11-25T01:57:49;12.10;92.00
33931;DHT22;20215;53.130;6.408;2022-11-25T02:00:16;12.10;91.90
33931;DHT22;20215;53.130;6.408;2022-11-25T02:02:42;12.10;92.00
33931;DHT22;20215;53.130;6.408;2022-11-25T02:05:09;12.10;91.90
33931;DHT22;20215;53.130;6.408;2022-11-25T02:07:38;12.10;91.90
33931;DHT22;20215;53.130;6.408;2022-11-25T02:10:08;12.10;91.90
33931;DHT22;20215;53.130;6.408;2022-11-25T02:12:36;12.10;91.90
33931;DHT22;20215;53.130;6.408;2022-11-25T02:15:03;12.10;91.90
33931;DHT22;20215;53.130;6.408;2022-11-25T02:17:29;12.10;91.90
33931;DHT22;20215;53.130;6.408;2022-11-25T02:20:12;12.10;91.90
33931;DHT22;20215;53.130;6.408;2022-11-25T02:25:24;12.10;91.90
33931;DHT22;20215;53.130;6.408;2022-11-25T02:27:56;12.10;91.90
33931;DHT22;20215;53.130;6.408;2022-11-25T02:30:23;12.10;91.90
33931;DHT22;20215;53.130;6.408;2022-11-25T02:32:48;12.20;91.90
33931;DHT22;20215;53.130;6.408;2022-11-25T02:37:49;12.10;91.90
33931;DHT22;20215;53.130;6.408;2022-11-25T02:40:14;12.10;91.90
33931;DHT22;20215;53.130;6.408;2022-11-25T02:42:40;12.10;92.00
33931;DHT22;20215;53.130;6.408;2022-11-25T02:45:09;12.10;91.90
33931;DHT22;20215;53.130;6.408;2022-11-25T02:47:37;12.10;91.90
33931;DHT22;20215;53.130;6.408;2022-11-25T02:50:02;12.10;91.90
33931;DHT22;20215;53.130;6.408;2022-11-25T02:52:28;12.10;91.90
33931;DHT22;20215;53.130;6.408;2022-11-25T02:54:54;12.20;91.90
33931;DHT22;20215;53.130;6.408;2022-11-25T02:57:19;12.20;92.00
33931;DHT22;20215;53.130;6.408;2022-11-25T02:59:45;12.10;92.00
33931;DHT22;20215;53.130;6.408;2022-11-25T03:02:10;12.10;91.90
33931;DHT22;20215;53.130;6.408;2022-11-25T03:04:36;12.10;92.00
33931;DHT22;20215;53.130;6.408;2022-11-25T03:07:01;12.10;92.00
33931;DHT22;20215;53.130;6.408;2022-11-25T03:09:27;12.10;92.00
33931;DHT22;20215;53.130;6.408;2022-11-25T03:11:53;12.10;91.90
33931;DHT22;20215;53.130;6.408;2022-11-25T03:14:37;12.10;92.00
33931;DHT22;20215;53.130;6.408;2022-11-25T03:17:02;12.10;92.10
33931;DHT22;20215;53.130;6.408;2022-11-25T03:19:28;12.10;92.00
33931;DHT22;20215;53.130;6.408;2022-11-25T03:21:53;12.10;92.00
33931;DHT22;20215;53.130;6.408;2022-11-25T03:24:19;12.10;92.00
33931;DHT22;20215;53.130;6.408;2022-11-25T03:26:45;12.10;92.00
33931;DHT22;20215;53.130;6.408;2022-11-25T03:29:10;12.10;92.10
33931;DHT22;20215;53.130;6.408;2022-11-25T03:31:36;12.10;92.10
33931;DHT22;20215;53.130;6.408;2022-11-25T03:34:01;12.10;92.10
33931;DHT22;20215;53.130;6.408;2022-11-25T03:36:27;12.10;92.00
33931;DHT22;20215;53.130;6.408;2022-11-25T03:38:52;12.10;92.10
33931;DHT22;20215;53.130;6.408;2022-11-25T03:41:18;12.10;92.10
33931;DHT22;20215;53.130;6.408;2022-11-25T03:43:43;12.10;92.10
33931;DHT22;20215;53.130;6.408;2022-11-25T03:46:10;12.10;92.10
33931;DHT22;20215;53.130;6.408;2022-11-25T03:48:35;12.10;92.00
33931;DHT22;20215;53.130;6.408;2022-11-25T03:51:01;12.10;92.00
33931;DHT22;20215;53.130;6.408;2022-11-25T03:53:26;12.20;92.10
33931;DHT22;20215;53.130;6.408;2022-11-25T03:55:52;12.20;92.10
33931;DHT22;20215;53.130;6.408;2022-11-25T03:58:18;12.20;92.10
33931;DHT22;20215;53.130;6.408;2022-11-25T04:00:43;12.20;92.10
33931;DHT22;20215;53.130;6.408;2022-11-25T04:03:09;12.20;92.20
33931;DHT22;20215;53.130;6.408;2022-11-25T04:05:34;12.20;92.10
33931;DHT22;20215;53.130;6.408;2022-11-25T04:08:00;12.20;92.10
33931;DHT22;20215;53.130;6.408;2022-11-25T04:10:25;12.20;92.20
33931;DHT22;20215;53.130;6.408;2022-11-25T04:12:51;12.20;92.10
33931;DHT22;20215;53.130;6.408;2022-11-25T04:15:18;12.10;92.10
33931;DHT22;20215;53.130;6.408;2022-11-25T04:17:43;12.20;92.10
33931;DHT22;20215;53.130;6.408;2022-11-25T04:20:10;12.20;92.10
33931;DHT22;20215;53.130;6.408;2022-11-25T04:22:36;12.20;92.10
33931;DHT22;20215;53.130;6.408;2022-11-25T04:25:02;12.20;92.00
33931;DHT22;20215;53.130;6.408;2022-11-25T04:27:28;12.20;92.10
33931;DHT22;20215;53.130;6.408;2022-11-25T04:29:53;12.20;92.10
33931;DHT22;20215;53.130;6.408;2022-11-25T04:32:19;12.20;92.10
33931;DHT22;20215;53.130;6.408;2022-11-25T04:34:44;12.20;92.20
33931;DHT22;20215;53.130;6.408;2022-11-25T04:37:10;12.20;92.10
33931;DHT22;20215;53.130;6.408;2022-11-25T04:39:35;12.20;92.30
33931;DHT22;20215;53.130;6.408;2022-11-25T04:42:01;12.20;92.10
33931;DHT22;20215;53.130;6.408;2022-11-25T04:44:45;12.20;92.10
33931;DHT22;20215;53.130;6.408;2022-11-25T04:47:11;12.20;92.10
33931;DHT22;20215;53.130;6.408;2022-11-25T04:49:36;12.20;92.10
33931;DHT22;20215;53.130;6.408;2022-11-25T04:52:02;12.10;92.10
33931;DHT22;20215;53.130;6.408;2022-11-25T04:54:27;12.20;92.10
33931;DHT22;20215;53.130;6.408;2022-11-25T04:56:53;12.20;92.10
33931;DHT22;20215;53.130;6.408;2022-11-25T04:59:19;12.20;92.10
33931;DHT22;20215;53.130;6.408;2022-11-25T05:02:03;12.20;92.10
33931;DHT22;20215;53.130;6.408;2022-11-25T05:04:28;12.20;92.10
33931;DHT22;20215;53.130;6.408;2022-11-25T05:06:55;12.20;92.10
33931;DHT22;20215;53.130;6.408;2022-11-25T05:09:20;12.20;92.10
33931;DHT22;20215;53.130;6.408;2022-11-25T05:11:46;12.20;92.10
33931;DHT22;20215;53.130;6.408;2022-11-25T05:14:12;12.20;92.10
33931;DHT22;20215;53.130;6.408;2022-11-25T05:16:37;12.20;92.10
33931;DHT22;20215;53.130;6.408;2022-11-25T05:19:03;12.20;92.10
33931;DHT22;20215;53.130;6.408;2022-11-25T05:21:28;12.20;92.20
33931;DHT22;20215;53.130;6.408;2022-11-25T05:23:54;12.20;92.10
33931;DHT22;20215;53.130;6.408;2022-11-25T05:26:20;12.20;92.10
33931;DHT22;20215;53.130;6.408;2022-11-25T05:28:45;12.20;92.20
33931;DHT22;20215;53.130;6.408;2022-11-25T05:31:11;12.20;92.20
33931;DHT22;20215;53.130;6.408;2022-11-25T05:33:37;12.20;92.20
33931;DHT22;20215;53.130;6.408;2022-11-25T05:36:03;12.20;92.20
33931;DHT22;20215;53.130;6.408;2022-11-25T05:38:29;12.20;92.20
33931;DHT22;20215;53.130;6.408;2022-11-25T05:41:03;12.20;92.20
33931;DHT22;20215;53.130;6.408;2022-11-25T05:43:29;12.20;92.20
33931;DHT22;20215;53.130;6.408;2022-11-25T05:45:55;12.20;92.20
33931;DHT22;20215;53.130;6.408;2022-11-25T05:48:21;12.20;92.20
33931;DHT22;20215;53.130;6.408;2022-11-25T05:50:46;12.20;92.20
33931;DHT22;20215;53.130;6.408;2022-11-25T05:53:12;12.20;92.20
33931;DHT22;20215;53.130;6.408;2022-11-25T05:55:38;12.20;92.30
33931;DHT22;20215;53.130;6.408;2022-11-25T05:58:04;12.30;92.30
33931;DHT22;20215;53.130;6.408;2022-11-25T06:00:32;12.20;92.30
33931;DHT22;20215;53.130;6.408;2022-11-25T06:03:03;12.20;92.40
33931;DHT22;20215;53.130;6.408;2022-11-25T06:05:34;12.20;92.40
33931;DHT22;20215;53.130;6.408;2022-11-25T06:07:59;12.20;92.40
33931;DHT22;20215;53.130;6.408;2022-11-25T06:10:25;12.20;92.40
33931;DHT22;20215;53.130;6.408;2022-11-25T06:12:50;12.30;92.40
33931;DHT22;20215;53.130;6.408;2022-11-25T06:15:18;12.30;92.40
33931;DHT22;20215;53.130;6.408;2022-11-25T06:17:45;12.30;92.50
33931;DHT22;20215;53.130;6.408;2022-11-25T06:20:10;12.20;92.30
33931;DHT22;20215;53.130;6.408;2022-11-25T06:22:36;12.20;92.40
33931;DHT22;20215;53.130;6.408;2022-11-25T06:25:02;12.20;92.30
33931;DHT22;20215;53.130;6.408;2022-11-25T06:27:28;12.20;92.50
33931;DHT22;20215;53.130;6.408;2022-11-25T06:29:53;12.30;92.40
33931;DHT22;20215;53.130;6.408;2022-11-25T06:32:19;12.30;92.40
33931;DHT22;20215;53.130;6.408;2022-11-25T06:34:44;12.20;92.40
33931;DHT22;20215;53.130;6.408;2022-11-25T06:37:10;12.30;92.40
33931;DHT22;20215;53.130;6.408;2022-11-25T06:39:35;12.30;92.50
33931;DHT22;20215;53.130;6.408;2022-11-25T06:42:01;12.20;92.50
33931;DHT22;20215;53.130;6.408;2022-11-25T06:44:27;12.20;92.40
33931;DHT22;20215;53.130;6.408;2022-11-25T06:46:52;12.30;92.50
33931;DHT22;20215;53.130;6.408;2022-11-25T06:49:18;12.30;92.50
33931;DHT22;20215;53.130;6.408;2022-11-25T06:51:43;12.30;92.50
33931;DHT22;20215;53.130;6.408;2022-11-25T06:54:09;12.30;92.50
33931;DHT22;20215;53.130;6.408;2022-11-25T06:56:35;12.30;92.50
33931;DHT22;20215;53.130;6.408;2022-11-25T06:59:01;12.30;92.60
33931;DHT22;20215;53.130;6.408;2022-11-25T07:01:29;12.20;92.50
33931;DHT22;20215;53.130;6.408;2022-11-25T07:04:03;12.30;92.50
33931;DHT22;20215;53.130;6.408;2022-11-25T07:06:30;12.30;92.60
33931;DHT22;20215;53.130;6.408;2022-11-25T07:08:56;12.30;92.60
33931;DHT22;20215;53.130;6.408;2022-11-25T07:11:23;12.30;92.70
33931;DHT22;20215;53.130;6.408;2022-11-25T07:13:57;12.30;92.50
33931;DHT22;20215;53.130;6.408;2022-11-25T07:16:24;12.30;92.70
33931;DHT22;20215;53.130;6.408;2022-11-25T07:18:50;12.30;92.50
33931;DHT22;20215;53.130;6.408;2022-11-25T07:21:21;12.20;92.40
33931;DHT22;20215;53.130;6.408;2022-11-25T07:23:47;12.20;92.60
33931;DHT22;20215;53.130;6.408;2022-11-25T07:26:16;12.20;92.70
33931;DHT22;20215;53.130;6.408;2022-11-25T07:28:42;12.20;92.60
33931;DHT22;20215;53.130;6.408;2022-11-25T07:33:38;12.20;92.70
33931;DHT22;20215;53.130;6.408;2022-11-25T07:36:06;12.20;92.60
33931;DHT22;20215;53.130;6.408;2022-11-25T07:38:32;12.20;92.60
33931;DHT22;20215;53.130;6.408;2022-11-25T07:43:32;12.20;92.50
33931;DHT22;20215;53.130;6.408;2022-11-25T07:46:28;12.30;92.60
33931;DHT22;20215;53.130;6.408;2022-11-25T07:48:57;12.30;92.50
33931;DHT22;20215;53.130;6.408;2022-11-25T07:51:34;12.20;92.50
33931;DHT22;20215;53.130;6.408;2022-11-25T07:54:02;12.30;92.60
33931;DHT22;20215;53.130;6.408;2022-11-25T07:56:28;12.20;92.60
33931;DHT22;20215;53.130;6.408;2022-11-25T07:58:54;12.30;92.70
33931;DHT22;20215;53.130;6.408;2022-11-25T08:01:20;12.30;92.70
33931;DHT22;20215;53.130;6.408;2022-11-25T08:03:47;12.30;92.70
33931;DHT22;20215;53.130;6.408;2022-11-25T08:06:21;12.30;92.60
33931;DHT22;20215;53.130;6.408;2022-11-25T08:08:47;12.20;92.60
33931;DHT22;20215;53.130;6.408;2022-11-25T08:11:19;12.30;92.80
33931;DHT22;20215;53.130;6.408;2022-11-25T08:13:45;12.30;92.70
33931;DHT22;20215;53.130;6.408;2022-11-25T08:16:12;12.30;92.70
33931;DHT22;20215;53.130;6.408;2022-11-25T08:18:38;12.30;92.70
33931;DHT22;20215;53.130;6.408;2022-11-25T08:21:06;12.30;92.70
33931;DHT22;20215;53.130;6.408;2022-11-25T08:23:34;12.30;92.70
33931;DHT22;20215;53.130;6.408;2022-11-25T08:26:08;12.30;92.70
33931;DHT22;20215;53.130;6.408;2022-11-25T08:28:35;12.30;92.70
33931;DHT22;20215;53.130;6.408;2022-11-25T08:31:05;12.30;92.60
33931;DHT22;20215;53.130;6.408;2022-11-25T08:33:31;12.30;92.70
33931;DHT22;20215;53.130;6.408;2022-11-25T08:35:57;12.30;92.80
33931;DHT22;20215;53.130;6.408;2022-11-25T08:38:23;12.30;92.80
33931;DHT22;20215;53.130;6.408;2022-11-25T08:40:49;12.30;92.80
33931;DHT22;20215;53.130;6.408;2022-11-25T08:43:16;12.30;92.90
33931;DHT22;20215;53.130;6.408;2022-11-25T08:45:43;12.30;92.80
33931;DHT22;20215;53.130;6.408;2022-11-25T08:48:08;12.30;92.70
33931;DHT22;20215;53.130;6.408;2022-11-25T08:50:34;12.30;92.70
33931;DHT22;20215;53.130;6.408;2022-11-25T08:53:00;12.30;92.70
33931;DHT22;20215;53.130;6.408;2022-11-25T08:55:27;12.30;92.70
33931;DHT22;20215;53.130;6.408;2022-11-25T08:57:53;12.30;92.90
33931;DHT22;20215;53.130;6.408;2022-11-25T09:00:20;12.30;92.90
33931;DHT22;20215;53.130;6.408;2022-11-25T09:02:46;12.30;92.70
33931;DHT22;20215;53.130;6.408;2022-11-25T09:05:14;12.40;92.80
33931;DHT22;20215;53.130;6.408;2022-11-25T09:07:40;12.40;92.80
33931;DHT22;20215;53.130;6.408;2022-11-25T09:10:08;12.40;92.70
33931;DHT22;20215;53.130;6.408;2022-11-25T09:12:35;12.40;92.80
33931;DHT22;20215;53.130;6.408;2022-11-25T09:15:01;12.40;92.80
33931;DHT22;20215;53.130;6.408;2022-11-25T09:17:26;12.40;93.00
33931;DHT22;20215;53.130;6.408;2022-11-25T09:19:53;12.50;92.80
33931;DHT22;20215;53.130;6.408;2022-11-25T09:22:19;12.50;92.70
33931;DHT22;20215;53.130;6.408;2022-11-25T09:24:44;12.50;92.60
33931;DHT22;20215;53.130;6.408;2022-11-25T09:27:10;12.50;92.50
33931;DHT22;20215;53.130;6.408;2022-11-25T09:29:36;12.50;92.50
33931;DHT22;20215;53.130;6.408;2022-11-25T09:32:01;12.50;92.50
33931;DHT22;20215;53.130;6.408;2022-11-25T09:34:27;12.50;92.50
33931;DHT22;20215;53.130;6.408;2022-11-25T09:36:53;12.60;92.50
33931;DHT22;20215;53.130;6.408;2022-11-25T09:39:18;12.60;92.50
33931;DHT22;20215;53.130;6.408;2022-11-25T09:45:21;12.60;92.70
33931;DHT22;20215;53.130;6.408;2022-11-25T09:48:28;12.60;92.70
33931;DHT22;20215;53.130;6.408;2022-11-25T09:51:03;12.60;92.60
33931;DHT22;20215;53.130;6.408;2022-11-25T09:56:28;12.70;92.60
33931;DHT22;20215;53.130;6.408;2022-11-25T09:59:12;12.70;92.70
33931;DHT22;20215;53.130;6.408;2022-11-25T10:01:51;12.70;92.60
33931;DHT22;20215;53.130;6.408;2022-11-25T10:04:26;12.70;92.70
33931;DHT22;20215;53.130;6.408;2022-11-25T10:06:57;12.70;92.70
33931;DHT22;20215;53.130;6.408;2022-11-25T10:09:28;12.70;92.50
33931;DHT22;20215;53.130;6.408;2022-11-25T10:12:21;12.70;92.50
33931;DHT22;20215;53.130;6.408;2022-11-25T10:14:52;12.70;92.40
33931;DHT22;20215;53.130;6.408;2022-11-25T10:19:58;12.70;92.50
33931;DHT22;20215;53.130;6.408;2022-11-25T10:22:35;12.70;92.80
33931;DHT22;20215;53.130;6.408;2022-11-25T10:27:58;12.80;92.80
33931;DHT22;20215;53.130;6.408;2022-11-25T10:30:29;12.80;92.80
33931;DHT22;20215;53.130;6.408;2022-11-25T10:35:34;12.80;92.90
33931;DHT22;20215;53.130;6.408;2022-11-25T10:38:05;12.80;92.70
33931;DHT22;20215;53.130;6.408;2022-11-25T10:40:32;12.80;92.60
33931;DHT22;20215;53.130;6.408;2022-11-25T10:42:59;12.90;92.70
33931;DHT22;20215;53.130;6.408;2022-11-25T10:45:30;12.90;92.60
33931;DHT22;20215;53.130;6.408;2022-11-25T10:48:09;12.90;92.60
33931;DHT22;20215;53.130;6.408;2022-11-25T10:53:20;12.90;92.40
33931;DHT22;20215;53.130;6.408;2022-11-25T10:56:09;12.90;92.40
33931;DHT22;20215;53.130;6.408;2022-11-25T10:58:39;12.90;92.40
33931;DHT22;20215;53.130;6.408;2022-11-25T11:01:06;12.90;92.40
33931;DHT22;20215;53.130;6.408;2022-11-25T11:03:37;12.90;92.50
33931;DHT22;20215;53.130;6.408;2022-11-25T11:06:02;12.90;92.50
33931;DHT22;20215;53.130;6.408;2022-11-25T11:08:37;12.90;92.40
33931;DHT22;20215;53.130;6.408;2022-11-25T11:11:14;13.00;92.50
33931;DHT22;20215;53.130;6.408;2022-11-25T11:13:40;13.00;92.60
33931;DHT22;20215;53.130;6.408;2022-11-25T11:18:50;13.00;92.50
33931;DHT22;20215;53.130;6.408;2022-11-25T11:21:42;13.00;92.50
33931;DHT22;20215;53.130;6.408;2022-11-25T11:27:14;13.00;92.50
33931;DHT22;20215;53.130;6.408;2022-11-25T11:29:40;13.00;92.60
33931;DHT22;20215;53.130;6.408;2022-11-25T11:32:07;13.00;92.50
33931;DHT22;20215;53.130;6.408;2022-11-25T11:37:40;13.00;92.50
33931;DHT22;20215;53.130;6.408;2022-11-25T11:50:44;13.10;92.50
33931;DHT22;20215;53.130;6.408;2022-11-25T11:53:30;13.00;92.60
33931;DHT22;20215;53.130;6.408;2022-11-25T11:56:19;13.00;92.50
33931;DHT22;20215;53.130;6.408;2022-11-25T12:01:29;13.10;92.60
33931;DHT22;20215;53.130;6.408;2022-11-25T12:03:58;13.10;92.50
33931;DHT22;20215;53.130;6.408;2022-11-25T12:06:28;13.10;92.60
33931;DHT22;20215;53.130;6.408;2022-11-25T12:09:04;13.10;92.50
33931;DHT22;20215;53.130;6.408;2022-11-25T12:11:35;13.10;92.50
33931;DHT22;20215;53.130;6.408;2022-11-25T12:14:11;13.10;92.50
33931;DHT22;20215;53.130;6.408;2022-11-25T12:16:49;13.10;92.40
33931;DHT22;20215;53.130;6.408;2022-11-25T12:22:34;13.10;92.40
33931;DHT22;20215;53.130;6.408;2022-11-25T12:25:32;13.20;92.40
33931;DHT22;20215;53.130;6.408;2022-11-25T12:31:14;13.20;92.40
33931;DHT22;20215;53.130;6.408;2022-11-25T12:34:04;13.20;92.40
33931;DHT22;20215;53.130;6.408;2022-11-25T12:39:04;13.20;92.50
33931;DHT22;20215;53.130;6.408;2022-11-25T12:41:42;13.20;92.50
33931;DHT22;20215;53.130;6.408;2022-11-25T12:46:54;13.20;92.50
33931;DHT22;20215;53.130;6.408;2022-11-25T12:49:26;13.30;92.70
33931;DHT22;20215;53.130;6.408;2022-11-25T12:57:34;13.30;92.70
33931;DHT22;20215;53.130;6.408;2022-11-25T13:16:25;13.40;92.50
33931;DHT22;20215;53.130;6.408;2022-11-25T13:18:54;13.40;92.50
33931;DHT22;20215;53.130;6.408;2022-11-25T13:21:20;13.40;92.40
33931;DHT22;20215;53.130;6.408;2022-11-25T13:23:51;13.40;92.50
33931;DHT22;20215;53.130;6.408;2022-11-25T13:26:44;13.40;92.50
33931;DHT22;20215;53.130;6.408;2022-11-25T13:36:49;13.40;92.60
33931;DHT22;20215;53.130;6.408;2022-11-25T13:39:17;13.50;92.60
33931;DHT22;20215;53.130;6.408;2022-11-25T13:42:11;13.40;92.60
33931;DHT22;20215;53.130;6.408;2022-11-25T13:44:52;13.50;92.60
33931;DHT22;20215;53.130;6.408;2022-11-25T13:47:37;13.50;92.70
33931;DHT22;20215;53.130;6.408;2022-11-25T13:50:05;13.50;92.60
33931;DHT22;20215;53.130;6.408;2022-11-25T13:54:59;13.50;92.60
33931;DHT22;20215;53.130;6.408;2022-11-25T13:57:35;13.50;92.60
33931;DHT22;20215;53.130;6.408;2022-11-25T14:02:52;13.50;92.50
33931;DHT22;20215;53.130;6.408;2022-11-25T14:25:29;13.60;92.60
33931;DHT22;20215;53.130;6.408;2022-11-25T14:28:30;13.50;92.60
33931;DHT22;20215;53.130;6.408;2022-11-25T14:31:06;13.50;92.60
33931;DHT22;20215;53.130;6.408;2022-11-25T14:33:37;13.50;92.70
33931;DHT22;20215;53.130;6.408;2022-11-25T14:36:14;13.50;92.60
33931;DHT22;20215;53.130;6.408;2022-11-25T14:41:16;13.50;92.60
33931;DHT22;20215;53.130;6.408;2022-11-25T14:43:47;13.50;92.60
33931;DHT22;20215;53.130;6.408;2022-11-25T14:46:19;13.50;92.60
33931;DHT22;20215;53.130;6.408;2022-11-25T14:48:52;13.40;92.60
33931;DHT22;20215;53.130;6.408;2022-11-25T14:51:18;13.40;92.70
33931;DHT22;20215;53.130;6.408;2022-11-25T14:53:47;13.40;92.70
33931;DHT22;20215;53.130;6.408;2022-11-25T14:56:14;13.50;92.60
33931;DHT22;20215;53.130;6.408;2022-11-25T14:58:41;13.40;92.70
33931;DHT22;20215;53.130;6.408;2022-11-25T15:01:19;13.40;92.70
33931;DHT22;20215;53.130;6.408;2022-11-25T15:03:47;13.40;92.60
33931;DHT22;20215;53.130;6.408;2022-11-25T15:06:14;13.40;92.70
33931;DHT22;20215;53.130;6.408;2022-11-25T15:08:45;13.40;92.70
33931;DHT22;20215;53.130;6.408;2022-11-25T15:11:19;13.40;92.70
33931;DHT22;20215;53.130;6.408;2022-11-25T15:13:47;13.40;92.70
33931;DHT22;20215;53.130;6.408;2022-11-25T15:16:29;13.40;92.70
33931;DHT22;20215;53.130;6.408;2022-11-25T15:19:01;13.40;92.70
33931;DHT22;20215;53.130;6.408;2022-11-25T15:21:33;13.40;92.70
33931;DHT22;20215;53.130;6.408;2022-11-25T15:24:00;13.40;92.70
33931;DHT22;20215;53.130;6.408;2022-11-25T15:26:30;13.40;92.80
33931;DHT22;20215;53.130;6.408;2022-11-25T15:29:10;13.30;92.80
33931;DHT22;20215;53.130;6.408;2022-11-25T15:31:36;13.30;92.80
33931;DHT22;20215;53.130;6.408;2022-11-25T15:34:05;13.30;92.80
33931;DHT22;20215;53.130;6.408;2022-11-25T15:36:32;13.30;92.80
33931;DHT22;20215;53.130;6.408;2022-11-25T15:44:26;13.30;92.90
33931;DHT22;20215;53.130;6.408;2022-11-25T15:47:02;13.30;92.90
33931;DHT22;20215;53.130;6.408;2022-11-25T15:49:29;13.30;92.90
33931;DHT22;20215;53.130;6.408;2022-11-25T15:51:59;13.30;93.00
33931;DHT22;20215;53.130;6.408;2022-11-25T15:54:37;13.30;92.90
33931;DHT22;20215;53.130;6.408;2022-11-25T15:57:18;13.30;93.00
33931;DHT22;20215;53.130;6.408;2022-11-25T15:59:48;13.20;92.90
33931;DHT22;20215;53.130;6.408;2022-11-25T16:02:47;13.20;93.00
33931;DHT22;20215;53.130;6.408;2022-11-25T16:05:15;13.20;92.90
33931;DHT22;20215;53.130;6.408;2022-11-25T16:18:22;13.10;93.00
33931;DHT22;20215;53.130;6.408;2022-11-25T16:20:54;13.20;93.10
33931;DHT22;20215;53.130;6.408;2022-11-25T16:23:21;13.10;93.10
33931;DHT22;20215;53.130;6.408;2022-11-25T16:26:02;13.20;93.10
33931;DHT22;20215;53.130;6.408;2022-11-25T16:28:29;13.10;93.10
33931;DHT22;20215;53.130;6.408;2022-11-25T16:30:55;13.10;93.10
33931;DHT22;20215;53.130;6.408;2022-11-25T16:33:23;13.10;93.10
33931;DHT22;20215;53.130;6.408;2022-11-25T16:35:49;13.10;93.10
33931;DHT22;20215;53.130;6.408;2022-11-25T16:38:15;13.10;93.10
33931;DHT22;20215;53.130;6.408;2022-11-25T16:40:41;13.10;93.10
33931;DHT22;20215;53.130;6.408;2022-11-25T16:43:19;13.10;93.10
33931;DHT22;20215;53.130;6.408;2022-11-25T16:45:48;13.10;93.10
33931;DHT22;20215;53.130;6.408;2022-11-25T16:48:16;13.10;93.10
33931;DHT22;20215;53.130;6.408;2022-11-25T16:50:42;13.10;93.10
33931;DHT22;20215;53.130;6.408;2022-11-25T16:53:08;13.10;93.10
33931;DHT22;20215;53.130;6.408;2022-11-25T16:55:34;13.00;93.20
33931;DHT22;20215;53.130;6.408;2022-11-25T16:58:01;13.10;93.20
33931;DHT22;20215;53.130;6.408;2022-11-25T17:00:26;13.10;93.20
33931;DHT22;20215;53.130;6.408;2022-11-25T17:02:52;13.10;93.30
33931;DHT22;20215;53.130;6.408;2022-11-25T17:05:20;13.10;93.30
33931;DHT22;20215;53.130;6.408;2022-11-25T17:07:47;13.00;93.20
33931;DHT22;20215;53.130;6.408;2022-11-25T17:10:14;13.00;93.20
33931;DHT22;20215;53.130;6.408;2022-11-25T17:12:41;13.00;93.20
33931;DHT22;20215;53.130;6.408;2022-11-25T17:15:17;13.00;93.20
33931;DHT22;20215;53.130;6.408;2022-11-25T17:17:44;13.00;93.20
33931;DHT22;20215;53.130;6.408;2022-11-25T17:20:17;13.00;93.20
33931;DHT22;20215;53.130;6.408;2022-11-25T17:22:43;13.00;93.20
33931;DHT22;20215;53.130;6.408;2022-11-25T17:25:11;13.00;93.50
33931;DHT22;20215;53.130;6.408;2022-11-25T17:27:37;13.00;93.20
33931;DHT22;20215;53.130;6.408;2022-11-25T17:30:05;13.00;93.20
33931;DHT22;20215;53.130;6.408;2022-11-25T17:32:32;13.00;93.20
33931;DHT22;20215;53.130;6.408;2022-11-25T17:34:58;13.00;93.20
33931;DHT22;20215;53.130;6.408;2022-11-25T17:37:24;13.00;93.30
33931;DHT22;20215;53.130;6.408;2022-11-25T17:39:53;13.00;93.30
33931;DHT22;20215;53.130;6.408;2022-11-25T17:42:30;13.00;93.30
33931;DHT22;20215;53.130;6.408;2022-11-25T17:44:56;13.00;93.30
33931;DHT22;20215;53.130;6.408;2022-11-25T17:47:22;12.90;93.20
33931;DHT22;20215;53.130;6.408;2022-11-25T17:49:48;13.00;93.40
33931;DHT22;20215;53.130;6.408;2022-11-25T17:52:14;13.00;93.40
33931;DHT22;20215;53.130;6.408;2022-11-25T17:54:39;12.90;93.40
33931;DHT22;20215;53.130;6.408;2022-11-25T17:57:05;12.90;93.30
33931;DHT22;20215;53.130;6.408;2022-11-25T17:59:33;12.90;93.40
33931;DHT22;20215;53.130;6.408;2022-11-25T18:01:59;13.00;93.30